createdAt,value
2023-01-25T00:03:19.315Z,90.39
2023-01-25T00:07:24.756Z,90.99
2023-01-25T00:11:32.783Z,91.06
2023-01-25T00:15:37.511Z,90.87
2023-01-25T00:19:43.639Z,90.92
2023-01-25T00:23:52.458Z,90.63
2023-01-25T00:27:57.990Z,91.73
2023-01-25T00:32:11.570Z,92.04
2023-01-25T00:36:42.693Z,91.57
2023-01-25T00:40:50.361Z,92.58
2023-01-25T00:44:57.303Z,92.36
2023-01-25T00:49:04.594Z,92.71
2023-01-25T00:53:13.226Z,92.33
2023-01-25T00:57:20.869Z,92.04
2023-01-25T01:01:26.793Z,92.52
2023-01-25T01:05:34.218Z,93.14
2023-01-25T01:09:42.698Z,92.12
2023-01-25T01:13:51.947Z,92.57
2023-01-25T01:18:00.243Z,92.75
2023-01-25T01:22:07.730Z,93.32
2023-01-25T01:26:24.592Z,92.79
2023-01-25T01:30:30.584Z,93.04
2023-01-25T01:34:36.759Z,92.82
2023-01-25T01:38:41.981Z,92.98
2023-01-25T01:43:10.107Z,92.82
2023-01-25T01:47:18.928Z,93.38
2023-01-25T01:51:29.549Z,93.56
2023-01-25T01:55:37.158Z,94.02
2023-01-25T01:59:46.236Z,92.99
2023-01-25T02:03:56.174Z,93.74
2023-01-25T02:08:02.899Z,93.42
2023-01-25T02:12:12.157Z,93.90
2023-01-25T02:16:21.057Z,93.81
2023-01-25T02:20:35.836Z,93.95
2023-01-25T02:24:48.993Z,93.82
2023-01-25T02:28:59.528Z,94.22
2023-01-25T02:33:05.579Z,94.21
2023-01-25T02:37:11.884Z,94.01
2023-01-25T02:41:26.799Z,94.26
2023-01-25T02:45:38.783Z,94.13
2023-01-25T02:49:43.837Z,94.42
2023-01-25T02:53:54.310Z,94.41
2023-01-25T02:58:08.891Z,94.70
2023-01-25T03:02:18.228Z,94.16
2023-01-25T03:06:23.850Z,94.57
2023-01-25T03:10:30.662Z,94.57
2023-01-25T03:14:38.901Z,94.98
2023-01-25T03:18:48.133Z,94.86
2023-01-25T03:22:53.227Z,94.72
2023-01-25T03:27:18.292Z,94.82
2023-01-25T03:31:24.664Z,94.65
2023-01-25T03:35:35.182Z,94.33
2023-01-25T03:39:42.885Z,94.90
2023-01-25T03:43:52.849Z,94.82
2023-01-25T03:47:57.074Z,95.02
2023-01-25T03:52:06.640Z,95.08
2023-01-25T03:56:18.307Z,94.86
2023-01-25T04:00:25.039Z,95.06
2023-01-25T04:04:32.714Z,94.87
2023-01-25T04:08:39.588Z,95.73
2023-01-25T04:12:44.571Z,95.44
2023-01-25T04:16:56.079Z,95.11
2023-01-25T04:21:02.867Z,95.39
2023-01-25T04:25:14.592Z,95.08
2023-01-25T04:29:23.695Z,95.68
2023-01-25T04:33:31.071Z,94.99
2023-01-25T04:37:36.410Z,95.42
2023-01-25T04:41:45.480Z,95.37
2023-01-25T04:45:53.081Z,95.51
2023-01-25T04:49:57.937Z,95.17
2023-01-25T04:54:03.858Z,95.06
2023-01-25T04:58:14.487Z,95.35
2023-01-25T05:02:19.661Z,94.95
2023-01-25T05:06:25.817Z,95.15
2023-01-25T05:10:31.581Z,95.36
2023-01-25T05:14:47.862Z,95.05
2023-01-25T05:18:54.934Z,94.39
2023-01-25T05:23:00.142Z,95.29
2023-01-25T05:27:11.447Z,94.09
2023-01-25T05:31:22.842Z,94.51
2023-01-25T05:35:30.740Z,94.01
2023-01-25T05:39:38.188Z,93.70
2023-01-25T05:43:47.132Z,93.59
2023-01-25T05:47:58.851Z,93.67
2023-01-25T05:52:03.473Z,93.60
2023-01-25T05:56:11.428Z,93.13
2023-01-25T06:00:18.285Z,93.21
2023-01-25T06:04:26.400Z,93.57
2023-01-25T06:08:32.730Z,93.14
2023-01-25T06:12:40.374Z,93.00
2023-01-25T06:16:58.216Z,92.69
2023-01-25T06:21:09.703Z,93.82
2023-01-25T06:25:15.983Z,92.40
2023-01-25T06:29:25.076Z,93.51
2023-01-25T06:33:36.505Z,93.26
2023-01-25T06:37:56.020Z,93.46
2023-01-25T06:42:01.443Z,92.55
2023-01-25T06:46:06.478Z,92.82
2023-01-25T06:50:16.637Z,92.37
2023-01-25T06:54:24.455Z,93.09
2023-01-25T06:58:31.069Z,92.87
2023-01-25T07:02:38.461Z,93.64
2023-01-25T07:06:44.472Z,93.54
2023-01-25T07:10:58.921Z,93.66
2023-01-25T07:15:08.802Z,93.57
2023-01-25T07:19:19.124Z,93.84
2023-01-25T07:23:25.020Z,93.60
2023-01-25T07:27:40.748Z,92.75
2023-01-25T07:31:54.476Z,93.25
2023-01-25T07:36:02.525Z,93.79
2023-01-25T07:40:12.563Z,93.19
2023-01-25T07:44:24.578Z,93.28
2023-01-25T07:48:36.149Z,93.21
2023-01-25T07:52:42.312Z,93.09
2023-01-25T07:56:45.029Z,93.21
2023-01-25T08:00:57.180Z,92.67
2023-01-25T08:05:04.880Z,92.91
2023-01-25T08:09:13.998Z,93.41
2023-01-25T08:13:21.031Z,93.59
2023-01-25T08:17:38.125Z,92.66
2023-01-25T08:21:42.932Z,92.34
2023-01-25T08:25:46.556Z,92.71
2023-01-25T08:30:00.714Z,92.40
2023-01-25T08:34:08.451Z,92.06
2023-01-25T08:38:13.111Z,92.10
2023-01-25T08:42:21.519Z,92.68
2023-01-25T08:46:32.589Z,92.89
2023-01-25T08:50:36.986Z,93.28
2023-01-25T08:54:47.753Z,92.91
2023-01-25T08:58:58.891Z,92.73
2023-01-25T09:03:03.384Z,93.83
2023-01-25T09:07:16.199Z,92.44
2023-01-25T09:11:20.875Z,91.94
2023-01-25T09:15:23.954Z,92.37
2023-01-25T09:19:33.420Z,92.37
2023-01-25T09:23:50.600Z,92.37
2023-01-25T09:27:54.132Z,91.57
2023-01-25T09:32:02.567Z,91.89
2023-01-25T09:36:14.770Z,91.56
2023-01-25T09:40:32.444Z,91.79
2023-01-25T09:44:59.437Z,92.56
2023-01-25T09:49:14.977Z,93.36
2023-01-25T09:53:24.331Z,93.44
2023-01-25T09:57:32.577Z,91.14
2023-01-25T10:01:41.057Z,91.27
2023-01-25T10:05:45.948Z,92.22
2023-01-25T10:09:52.287Z,92.69
2023-01-25T10:14:01.212Z,92.04
2023-01-25T10:18:09.572Z,92.06
2023-01-25T10:22:22.559Z,92.61
2023-01-25T10:26:27.923Z,92.00
2023-01-25T10:30:44.723Z,92.76
2023-01-25T10:34:57.447Z,92.05
2023-01-25T10:39:03.500Z,92.26
2023-01-25T10:43:17.589Z,92.34
2023-01-25T10:47:32.490Z,92.77
2023-01-25T10:51:36.442Z,92.69
2023-01-25T10:56:22.273Z,91.23
2023-01-25T11:00:34.922Z,91.75
2023-01-25T11:04:43.611Z,91.97
2023-01-25T11:08:48.610Z,93.13
2023-01-25T11:13:04.837Z,92.04
2023-01-25T11:17:26.671Z,91.20
2023-01-25T11:21:41.769Z,91.58
2023-01-25T11:25:47.576Z,91.79
2023-01-25T11:30:11.274Z,91.73
2023-01-25T11:34:22.698Z,92.56
2023-01-25T11:38:33.310Z,91.83
2023-01-25T11:42:47.219Z,91.26
2023-01-25T11:47:01.582Z,91.52
2023-01-25T11:51:08.199Z,92.49
2023-01-25T11:55:24.769Z,92.22
2023-01-25T11:59:51.201Z,92.80
2023-01-25T12:04:37.686Z,91.75
2023-01-25T12:09:00.635Z,92.31
2023-01-25T12:13:15.717Z,91.90
2023-01-25T12:17:35.282Z,92.53
2023-01-25T12:22:04.253Z,92.78
2023-01-25T12:26:29.031Z,92.09
2023-01-25T12:30:44.821Z,92.25
2023-01-25T12:34:52.204Z,91.54
2023-01-25T12:39:02.146Z,91.56
2023-01-25T12:43:11.076Z,91.09
2023-01-25T12:47:22.591Z,91.14
2023-01-25T12:51:29.514Z,91.55
2023-01-25T12:55:32.443Z,91.73
2023-01-25T12:59:42.730Z,92.15
2023-01-25T13:04:04.187Z,92.79
2023-01-25T13:08:32.021Z,92.87
2023-01-25T13:12:56.992Z,91.78
2023-01-25T13:17:39.259Z,91.67
2023-01-25T13:21:49.184Z,92.29
2023-01-25T13:25:52.215Z,92.27
2023-01-25T13:30:09.601Z,90.87
2023-01-25T13:34:54.378Z,92.00
2023-01-25T13:39:07.563Z,91.94
2023-01-25T13:43:24.435Z,92.31
2023-01-25T13:47:34.056Z,91.36
2023-01-25T13:51:48.117Z,91.90
2023-01-25T13:55:58.323Z,91.73
2023-01-25T14:00:13.369Z,92.23
2023-01-25T14:04:19.048Z,92.99
2023-01-25T14:08:29.586Z,93.26
2023-01-25T14:12:42.325Z,93.52
2023-01-25T14:16:47.280Z,92.42
2023-01-25T14:20:56.257Z,92.75
2023-01-25T14:25:13.959Z,91.78
2023-01-25T14:29:32.437Z,91.75
2023-01-25T14:33:45.637Z,92.43
2023-01-25T14:37:55.394Z,91.86
2023-01-25T14:42:02.063Z,91.90
2023-01-25T14:50:42.251Z,92.40
2023-01-25T14:54:54.742Z,92.21
2023-01-25T14:59:16.466Z,91.82
2023-01-25T15:03:23.174Z,92.54
2023-01-25T15:08:03.232Z,93.06
2023-01-25T15:12:25.017Z,93.50
2023-01-25T15:16:43.135Z,92.72
2023-01-25T15:20:50.336Z,92.15
2023-01-25T15:25:12.632Z,92.60
2023-01-25T15:29:24.496Z,93.49
2023-01-25T15:33:34.730Z,93.03
2023-01-25T15:37:45.521Z,92.79
2023-01-25T15:42:01.170Z,94.58
2023-01-25T15:46:08.914Z,93.75
2023-01-25T15:50:21.690Z,93.27
2023-01-25T15:54:25.614Z,93.64
2023-01-25T15:58:39.654Z,94.24
2023-01-25T16:02:45.586Z,94.46
2023-01-25T16:06:52.411Z,94.71
2023-01-25T16:11:01.947Z,94.42
2023-01-25T16:15:14.972Z,94.39
2023-01-25T16:19:19.635Z,94.48
2023-01-25T16:23:31.227Z,94.75
2023-01-25T16:27:47.822Z,93.76
2023-01-25T16:32:00.280Z,93.54
2023-01-25T16:36:06.010Z,94.17
2023-01-25T16:40:30.831Z,93.84
2023-01-25T16:44:36.022Z,93.88
2023-01-25T16:48:53.378Z,93.66
2023-01-25T16:53:06.311Z,93.90
2023-01-25T16:57:20.800Z,94.61
2023-01-25T17:01:40.101Z,95.21
2023-01-25T17:06:01.547Z,94.75
2023-01-25T17:10:22.549Z,94.92
2023-01-25T17:14:34.269Z,94.97
2023-01-25T17:19:02.363Z,94.60
2023-01-25T17:23:21.531Z,95.18
2023-01-25T17:27:45.955Z,94.09
2023-01-25T17:32:04.553Z,95.56
2023-01-25T17:36:20.234Z,95.53
2023-01-25T17:40:30.138Z,94.95
2023-01-25T17:44:46.447Z,94.80
2023-01-25T17:48:59.647Z,95.02
2023-01-25T17:53:32.862Z,95.22
2023-01-25T17:57:56.437Z,95.10
2023-01-25T18:02:18.072Z,95.14
2023-01-25T18:06:38.934Z,95.32
2023-01-25T18:10:59.884Z,94.40
2023-01-25T18:15:25.575Z,94.11
2023-01-25T18:19:48.295Z,93.41
2023-01-25T18:24:03.638Z,94.23
2023-01-25T18:28:26.767Z,95.31
2023-01-25T18:32:33.998Z,95.83
2023-01-25T18:36:49.019Z,95.33
2023-01-25T18:41:03.058Z,95.16
2023-01-25T18:45:25.270Z,95.04
2023-01-25T18:49:36.509Z,95.81
2023-01-25T18:53:55.877Z,95.19
2023-01-25T18:58:09.966Z,94.63
2023-01-25T19:02:26.359Z,94.88
2023-01-25T19:07:08.910Z,94.03
2023-01-25T19:11:27.777Z,94.89
2023-01-25T19:15:49.872Z,95.18
2023-01-25T19:20:02.638Z,93.99
2023-01-25T19:24:27.027Z,94.36
2023-01-25T19:28:48.794Z,93.92
2023-01-25T19:32:51.918Z,93.95
2023-01-25T19:36:59.279Z,94.32
2023-01-25T19:41:19.863Z,95.21
2023-01-25T19:45:26.869Z,95.00
2023-01-25T19:49:31.954Z,94.52
2023-01-25T19:53:37.042Z,95.00
2023-01-25T19:57:53.007Z,94.40
2023-01-25T20:02:00.553Z,94.66
2023-01-25T20:06:07.277Z,94.49
2023-01-25T20:10:13.836Z,94.89
2023-01-25T20:14:26.366Z,95.34
2023-01-25T20:18:29.381Z,94.61
2023-01-25T20:22:38.384Z,94.84
2023-01-25T20:26:43.152Z,95.30
2023-01-25T20:30:52.016Z,94.72
2023-01-25T20:35:05.892Z,94.74
2023-01-25T20:39:10.239Z,94.91
2023-01-25T20:43:18.415Z,94.65
2023-01-25T20:47:23.743Z,94.72
2023-01-25T20:51:26.943Z,94.54
2023-01-25T20:55:30.683Z,94.90
2023-01-25T20:59:39.219Z,94.70
2023-01-25T21:03:49.535Z,93.91
2023-01-25T21:08:00.521Z,94.57
2023-01-25T21:12:11.368Z,94.47
2023-01-25T21:16:25.240Z,94.69
2023-01-25T21:20:40.503Z,94.99
2023-01-25T21:24:54.990Z,95.04
2023-01-25T21:28:59.556Z,95.61
2023-01-25T21:33:19.082Z,95.49
2023-01-25T21:37:28.671Z,96.50
2023-01-25T21:41:34.149Z,96.08
2023-01-25T21:46:00.176Z,96.71
2023-01-25T21:50:26.256Z,96.79
2023-01-25T21:54:33.298Z,96.60
2023-01-25T21:58:42.895Z,95.64
2023-01-25T22:02:54.273Z,95.69
2023-01-25T22:07:00.791Z,95.22
2023-01-25T22:11:25.423Z,96.45
2023-01-25T22:15:35.974Z,95.89
2023-01-25T22:19:47.053Z,95.50
2023-01-25T22:23:57.697Z,95.60
2023-01-25T22:28:15.751Z,95.97
2023-01-25T22:32:33.655Z,95.55
2023-01-25T22:36:47.774Z,96.32
2023-01-25T22:40:59.861Z,96.47
2023-01-25T22:45:11.300Z,96.00
2023-01-25T22:49:22.830Z,95.29
2023-01-25T22:53:35.716Z,94.94
2023-01-25T22:57:51.316Z,95.61
2023-01-25T23:02:04.440Z,95.97
2023-01-25T23:06:19.475Z,96.17
2023-01-25T23:10:32.961Z,95.76
2023-01-25T23:15:02.384Z,94.95
2023-01-25T23:19:14.221Z,95.30
2023-01-25T23:23:24.124Z,95.79
2023-01-25T23:27:29.773Z,96.31
2023-01-25T23:31:34.175Z,95.42
2023-01-25T23:35:47.613Z,96.30
2023-01-25T23:39:58.607Z,95.86
2023-01-25T23:44:12.014Z,95.42
2023-01-25T23:48:20.574Z,96.15
2023-01-25T23:52:29.333Z,96.34
2023-01-25T23:56:33.021Z,96.25
